^^
Your Local Weather - Clay, NY Station Historical Data
Daily Summary for April 20, 2017 Units:  English    Metric   Both
« Previous Day
Next Day »
Daily Weekly Monthly Yearly Custom
  High: Low: Average:
Temperature: 57.3 °F 47.0 °F 51.7 °F
Dew Point: 50.3 °F 45.1 °F 47.8 °F
Humidity: 94% 74% 87%
Wind Speed: 4.0mph 0.0mph 1.5mph
Wind Gust: 11.0mph - -
Wind- - South
Pressure: 30.13 in 29.83 in -
Precipitation: 0.74 in    
Historical Graphs
 
 
Tabular Data for April 20, 2017
Time Temperature Dew Point Pressure Wind Wind Speed Wind Gust Humidity Rainfall Rate (Hourly) solar
00:00 49.9 °F 48.0 °F 30.05 in Calm     93% 0.00 in 0 W/m2
00:06 49.8 °F 47.9 °F 30.06 in Calm     93% 0.00 in 0 W/m2
00:12 49.6 °F 47.7 °F 30.06 in Calm     93% 0.00 in 0 W/m2
00:18 49.5 °F 47.6 °F 30.06 in Calm     93% 0.00 in 0 W/m2
00:24 49.5 °F 47.6 °F 30.05 in Calm     93% 0.00 in 0 W/m2
00:30 49.4 °F 47.5 °F 30.06 in Calm     93% 0.00 in 0 W/m2
00:36 49.3 °F 47.4 °F 30.06 in Calm     93% 0.00 in 0 W/m2
00:42 49.2 °F 47.3 °F 30.06 in Calm     93% 0.00 in 0 W/m2
00:48 49.1 °F 47.2 °F 30.06 in Calm     93% 0.00 in 0 W/m2
00:54 49.1 °F 47.2 °F 30.06 in Calm     93% 0.00 in 0 W/m2
01:00 49.1 °F 47.2 °F 30.05 in Calm     93% 0.00 in 0 W/m2
01:06 49.1 °F 47.2 °F 30.05 in Calm     93% 0.00 in 0 W/m2
01:12 49.0 °F 47.1 °F 30.05 in Calm     93% 0.00 in 0 W/m2
01:18 48.9 °F 47.0 °F 30.05 in Calm     93% 0.00 in 0 W/m2
01:24 48.7 °F 46.8 °F 30.05 in Calm     93% 0.00 in 0 W/m2
01:30 48.5 °F 46.6 °F 30.05 in Calm     93% 0.00 in 0 W/m2
01:36 48.3 °F 46.4 °F 30.05 in Calm     93% 0.00 in 0 W/m2
01:42 48.3 °F 46.4 °F 30.05 in Calm     93% 0.00 in 0 W/m2
01:48 48.3 °F 46.4 °F 30.05 in Calm     93% 0.00 in 0 W/m2
01:54 48.1 °F 46.2 °F 30.05 in Calm     93% 0.00 in 0 W/m2
02:00 48.1 °F 46.2 °F 30.05 in Calm     93% 0.00 in 0 W/m2
02:06 48.0 °F 46.1 °F 30.05 in Calm     93% 0.00 in 0 W/m2
02:12 48.0 °F 46.1 °F 30.05 in Calm     93% 0.00 in 0 W/m2
02:18 48.0 °F 46.1 °F 30.05 in Calm   1.0 mph 93% 0.00 in 0 W/m2
02:24 48.0 °F 46.1 °F 30.05 in Calm     93% 0.00 in 0 W/m2
02:30 48.0 °F 46.1 °F 30.05 in Calm     93% 0.00 in 0 W/m2
02:36 48.1 °F 46.2 °F 30.05 in Calm     93% 0.00 in 0 W/m2
02:42 48.1 °F 46.2 °F 30.05 in Calm     93% 0.00 in 0 W/m2
02:48 48.2 °F 46.3 °F 30.05 in Calm   1.0 mph 93% 0.00 in 0 W/m2
02:54 48.3 °F 46.7 °F 30.05 in Calm   1.0 mph 94% 0.00 in 0 W/m2
03:00 48.4 °F 46.8 °F 30.05 in ESE 1.0 mph 1.0 mph 94% 0.00 in 0 W/m2
03:06 48.4 °F 46.8 °F 30.04 in Calm   1.0 mph 94% 0.00 in 0 W/m2
03:12 48.4 °F 46.8 °F 30.04 in Calm     94% 0.00 in 0 W/m2
03:18 48.4 °F 46.8 °F 30.04 in Calm     94% 0.00 in 0 W/m2
03:24 48.4 °F 46.8 °F 30.05 in Calm     94% 0.00 in 0 W/m2
03:30 48.4 °F 46.8 °F 30.04 in Calm     94% 0.00 in 0 W/m2
03:36 48.5 °F 46.9 °F 30.05 in Calm     94% 0.00 in 0 W/m2
03:42 48.4 °F 46.8 °F 30.05 in Calm     94% 0.00 in 0 W/m2
03:48 48.4 °F 46.8 °F 30.05 in Calm   1.0 mph 94% 0.00 in 0 W/m2
03:54 48.4 °F 46.8 °F 30.05 in Calm   1.0 mph 94% 0.00 in 0 W/m2
04:00 48.4 °F 46.8 °F 30.05 in Calm     94% 0.00 in 0 W/m2
04:06 48.4 °F 46.8 °F 30.05 in Calm     94% 0.00 in 0 W/m2
04:12 48.4 °F 46.8 °F 30.06 in Calm     94% 0.00 in 0 W/m2
04:18 48.4 °F 46.8 °F 30.06 in Calm     94% 0.00 in 0 W/m2
04:24 48.4 °F 46.8 °F 30.06 in Calm     94% 0.00 in 0 W/m2
04:30 48.4 °F 46.8 °F 30.06 in Calm     94% 0.00 in 0 W/m2
04:36 48.4 °F 46.8 °F 30.06 in Calm     94% 0.00 in 0 W/m2
04:42 48.4 °F 46.8 °F 30.07 in Calm   2.0 mph 94% 0.00 in 0 W/m2
04:48 48.5 °F 46.9 °F 30.07 in North 2.0 mph 3.0 mph 94% 0.00 in 0 W/m2
04:54 48.4 °F 46.8 °F 30.07 in North 2.0 mph 3.0 mph 94% 0.00 in 0 W/m2
05:00 48.4 °F 46.8 °F 30.07 in North 2.0 mph 2.0 mph 94% 0.00 in 0 W/m2
05:06 48.5 °F 46.9 °F 30.07 in North 1.0 mph 2.0 mph 94% 0.00 in 0 W/m2
05:12 48.5 °F 46.9 °F 30.07 in North 1.0 mph 2.0 mph 94% 0.00 in 0 W/m2
05:18 48.4 °F 46.8 °F 30.07 in Calm   2.0 mph 94% 0.00 in 0 W/m2
05:24 48.4 °F 46.8 °F 30.07 in Calm     94% 0.00 in 0 W/m2
05:30 48.4 °F 46.8 °F 30.07 in Calm     94% 0.00 in 0 W/m2
05:36 48.4 °F 46.8 °F 30.07 in Calm     94% 0.00 in 0 W/m2
05:42 48.4 °F 46.8 °F 30.07 in Calm     94% 0.00 in 0 W/m2
05:48 48.4 °F 46.8 °F 30.07 in Calm     94% 0.00 in 0 W/m2
05:54 48.4 °F 46.8 °F 30.07 in North 1.0 mph 2.0 mph 94% 0.00 in 0 W/m2
05:56 48.4 °F 46.8 °F 30.07 in North 1.0 mph 2.0 mph 94% 0.00 in 0 W/m2
06:02 48.4 °F 46.8 °F 30.07 in North 1.0 mph 1.0 mph 94% 0.00 in 0 W/m2
06:08 48.4 °F 46.8 °F 30.07 in North 1.0 mph 1.0 mph 94% 0.00 in 0 W/m2
06:14 48.4 °F 46.8 °F 30.08 in North 1.0 mph 2.0 mph 94% 0.00 in 0 W/m2
06:20 48.4 °F 46.8 °F 30.08 in North 2.0 mph 2.0 mph 94% 0.00 in 0 W/m2
06:26 48.4 °F 46.8 °F 30.07 in North 2.0 mph 4.0 mph 94% 0.00 in 0 W/m2
06:32 48.4 °F 46.8 °F 30.08 in North 2.0 mph 2.0 mph 94% 0.00 in 0 W/m2
06:38 48.4 °F 46.8 °F 30.08 in NNW 2.0 mph 2.0 mph 94% 0.00 in 5 W/m2
06:44 48.3 °F 46.7 °F 30.08 in NNW 2.0 mph 3.0 mph 94% 0.00 in 7 W/m2
06:50 48.2 °F 46.6 °F 30.08 in North 2.0 mph 2.0 mph 94% 0.00 in 9 W/m2
06:56 48.2 °F 46.6 °F 30.08 in North 2.0 mph 2.0 mph 94% 0.00 in 7 W/m2
07:02 48.0 °F 46.4 °F 30.09 in NNW 2.0 mph 4.0 mph 94% 0.00 in 7 W/m2
07:08 47.8 °F 46.2 °F 30.09 in NNW 3.0 mph 4.0 mph 94% 0.00 in 7 W/m2
07:14 47.6 °F 46.0 °F 30.08 in NNW 3.0 mph 3.0 mph 94% 0.00 in 14 W/m2
07:20 47.5 °F 45.9 °F 30.08 in NNW 2.0 mph 2.0 mph 94% 0.00 in 21 W/m2
07:26 47.4 °F 45.8 °F 30.08 in NNW 2.0 mph 2.0 mph 94% 0.00 in 35 W/m2
07:32 47.3 °F 45.7 °F 30.09 in NNW 1.0 mph 1.0 mph 94% 0.00 in 12 W/m2
07:38 47.3 °F 45.7 °F 30.10 in NNW 1.0 mph 2.0 mph 94% 0.00 in 9 W/m2
07:44 47.2 °F 45.6 °F 30.10 in NNW 1.0 mph 3.0 mph 94% 0.00 in 12 W/m2
07:50 47.1 °F 45.5 °F 30.10 in NNW 2.0 mph 2.0 mph 94% 0.00 in 37 W/m2
07:56 47.2 °F 45.6 °F 30.10 in NNW 2.0 mph 3.0 mph 94% 0.00 in 47 W/m2
08:02 47.1 °F 45.5 °F 30.11 in NNW 3.0 mph 3.0 mph 94% 0.00 in 47 W/m2
08:08 47.0 °F 45.1 °F 30.11 in NNW 2.0 mph 5.0 mph 93% 0.00 in 53 W/m2
08:14 47.0 °F 45.1 °F 30.10 in NNW 2.0 mph 4.0 mph 93% 0.00 in 54 W/m2
08:20 47.1 °F 45.2 °F 30.10 in NNW 1.0 mph 2.0 mph 93% 0.00 in 67 W/m2
08:26 47.2 °F 45.3 °F 30.10 in NNW 1.0 mph 2.0 mph 93% 0.00 in 70 W/m2
08:32 47.3 °F 45.4 °F 30.10 in NNW 1.0 mph 1.0 mph 93% 0.00 in 70 W/m2
08:38 47.5 °F 45.6 °F 30.10 in NNW 1.0 mph 2.0 mph 93% 0.00 in 74 W/m2
08:44 47.5 °F 45.6 °F 30.09 in NNW 1.0 mph 1.0 mph 93% 0.00 in 98 W/m2
08:50 47.7 °F 45.8 °F 30.10 in NNW 1.0 mph 1.0 mph 93% 0.00 in 93 W/m2
08:56 47.8 °F 45.9 °F 30.10 in NNW 1.0 mph 3.0 mph 93% 0.00 in 107 W/m2
09:02 48.1 °F 46.2 °F 30.10 in NNW 1.0 mph 5.0 mph 93% 0.00 in 118 W/m2
09:08 48.2 °F 46.0 °F 30.10 in ENE 2.0 mph 6.0 mph 92% 0.00 in 132 W/m2
09:14 48.2 °F 46.0 °F 30.10 in NNE 3.0 mph 5.0 mph 92% 0.00 in 134 W/m2
09:20 48.4 °F 45.9 °F 30.10 in NE 3.0 mph 4.0 mph 91% 0.00 in 114 W/m2
09:26 48.4 °F 45.6 °F 30.10 in ENE 2.0 mph 4.0 mph 90% 0.00 in 118 W/m2
09:32 48.5 °F 45.4 °F 30.11 in North 3.0 mph 3.0 mph 89% 0.00 in 111 W/m2
09:38 48.6 °F 45.5 °F 30.11 in NNW 2.0 mph 3.0 mph 89% 0.00 in 116 W/m2
09:44 48.7 °F 45.6 °F 30.12 in NNW 2.0 mph 3.0 mph 89% 0.00 in 102 W/m2
09:50 48.8 °F 45.4 °F 30.13 in NW 2.0 mph 2.0 mph 88% 0.00 in 111 W/m2
09:56 48.7 °F 45.3 °F 30.12 in NNW 2.0 mph 3.0 mph 88% 0.00 in 127 W/m2
10:02 48.8 °F 45.4 °F 30.12 in NNW 1.0 mph 3.0 mph 88% 0.00 in 148 W/m2
10:08 49.0 °F 45.6 °F 30.12 in NNW 1.0 mph 3.0 mph 88% 0.00 in 160 W/m2
10:14 49.1 °F 45.7 °F 30.11 in NNW 1.0 mph 3.0 mph 88% 0.00 in 174 W/m2
10:20 49.0 °F 45.3 °F 30.11 in NNW 2.0 mph 2.0 mph 87% 0.00 in 213 W/m2
10:26 49.2 °F 45.5 °F 30.10 in NNW 2.0 mph 2.0 mph 87% 0.00 in 253 W/m2
10:32 49.6 °F 45.9 °F 30.10 in NNW 1.0 mph 2.0 mph 87% 0.00 in 214 W/m2
10:38 49.9 °F 46.2 °F 30.10 in NNW 1.0 mph 3.0 mph 87% 0.00 in 230 W/m2
10:44 50.2 °F 46.2 °F 30.10 in NNW 1.0 mph 3.0 mph 86% 0.00 in 313 W/m2
10:50 50.2 °F 46.2 °F 30.10 in ENE 2.0 mph 2.0 mph 86% 0.00 in 192 W/m2
10:56 50.4 °F 46.4 °F 30.10 in NE 3.0 mph 6.0 mph 86% 0.00 in 218 W/m2
11:02 50.7 °F 46.7 °F 30.11 in North 2.0 mph 5.0 mph 86% 0.00 in 322 W/m2
11:08 50.9 °F 46.6 °F 30.11 in NE 2.0 mph 5.0 mph 85% 0.00 in 339 W/m2
11:14 51.2 °F 46.8 °F 30.12 in NE 2.0 mph 3.0 mph 85% 0.00 in 229 W/m2
11:20 51.3 °F 46.9 °F 30.11 in NE 1.0 mph 1.0 mph 85% 0.00 in 183 W/m2
11:26 51.5 °F 47.1 °F 30.10 in NE 1.0 mph 2.0 mph 85% 0.00 in 272 W/m2
11:32 51.6 °F 46.9 °F 30.10 in NNE 2.0 mph 3.0 mph 84% 0.00 in 227 W/m2
11:38 51.9 °F 47.5 °F 30.10 in NNE 2.0 mph 4.0 mph 85% 0.00 in 230 W/m2
11:44 52.0 °F 47.0 °F 30.10 in NNE 2.0 mph 2.0 mph 83% 0.00 in 278 W/m2
11:50 52.1 °F 47.1 °F 30.10 in NNE 1.0 mph 1.0 mph 83% 0.00 in 320 W/m2
11:56 52.4 °F 47.1 °F 30.10 in NNE 1.0 mph 4.0 mph 82% 0.00 in 253 W/m2
12:02 52.5 °F 47.5 °F 30.10 in ENE 1.0 mph 3.0 mph 83% 0.00 in 281 W/m2
12:08 52.4 °F 47.4 °F 30.09 in ENE 2.0 mph 3.0 mph 83% 0.00 in 304 W/m2
12:14 52.4 °F 47.4 °F 30.08 in ENE 1.0 mph 2.0 mph 83% 0.00 in 334 W/m2
12:20 52.7 °F 47.4 °F 30.08 in Calm   3.0 mph 82% 0.00 in 468 W/m2
12:26 53.3 °F 47.9 °F 30.08 in ENE 1.0 mph 3.0 mph 82% 0.00 in 397 W/m2
12:32 53.7 °F 48.0 °F 30.09 in ENE 2.0 mph 4.0 mph 81% 0.00 in 492 W/m2
12:38 54.0 °F 48.6 °F 30.09 in ENE 2.0 mph 4.0 mph 82% 0.00 in 434 W/m2
12:44 55.0 °F 48.9 °F 30.08 in ENE 1.0 mph 3.0 mph 80% 0.00 in 496 W/m2
12:50 54.8 °F 48.1 °F 30.09 in NNW 1.0 mph 1.0 mph 78% 0.00 in 643 W/m2
12:56 54.4 °F 48.0 °F 30.08 in NNW 1.0 mph 1.0 mph 79% 0.00 in 325 W/m2
13:02 54.8 °F 48.4 °F 30.08 in NW 1.0 mph 2.0 mph 79% 0.00 in 350 W/m2
13:08 55.4 °F 48.3 °F 30.08 in NW 1.0 mph 3.0 mph 77% 0.00 in 385 W/m2
13:14 55.3 °F 48.6 °F 30.08 in NW 1.0 mph 3.0 mph 78% 0.00 in 387 W/m2
13:20 55.3 °F 48.9 °F 30.07 in NW 1.0 mph 2.0 mph 79% 0.00 in 206 W/m2
13:26 55.5 °F 48.4 °F 30.07 in NW 1.0 mph 2.0 mph 77% 0.00 in 308 W/m2
13:32 55.4 °F 48.3 °F 30.06 in NW 2.0 mph 2.0 mph 77% 0.00 in 304 W/m2
13:38 55.6 °F 48.8 °F 30.05 in NW 1.0 mph 2.0 mph 78% 0.00 in 436 W/m2
13:44 56.4 °F 48.9 °F 30.05 in ENE 1.0 mph 1.0 mph 76% 0.00 in 420 W/m2
13:50 56.2 °F 48.4 °F 30.05 in ESE 1.0 mph 3.0 mph 75% 0.00 in 406 W/m2
13:56 56.2 °F 49.1 °F 30.05 in SE 2.0 mph 3.0 mph 77% 0.00 in 318 W/m2
14:02 56.2 °F 48.0 °F 30.05 in South 1.0 mph 2.0 mph 74% 0.00 in 239 W/m2
14:08 56.1 °F 48.6 °F 30.05 in South 1.0 mph 2.0 mph 76% 0.00 in 197 W/m2
14:14 56.1 °F 47.9 °F 30.05 in SSW 1.0 mph 2.0 mph 74% 0.00 in 128 W/m2
14:20 56.1 °F 47.9 °F 30.06 in East 2.0 mph 2.0 mph 74% 0.00 in 91 W/m2
14:26 55.9 °F 47.7 °F 30.06 in East 2.0 mph 2.0 mph 74% 0.00 in 88 W/m2
14:32 55.9 °F 47.7 °F 30.06 in East 1.0 mph 3.0 mph 74% 0.00 in 100 W/m2
14:38 55.8 °F 48.0 °F 30.05 in East 2.0 mph 3.0 mph 75% 0.00 in 86 W/m2
14:44 55.8 °F 48.3 °F 30.05 in East 1.0 mph 2.0 mph 76% 0.00 in 76 W/m2
14:50 55.8 °F 48.0 °F 30.05 in North 1.0 mph 1.0 mph 75% 0.00 in 67 W/m2
14:56 55.7 °F 48.6 °F 30.04 in North 1.0 mph 2.0 mph 77% 0.00 in 91 W/m2
15:02 55.5 °F 48.4 °F 30.04 in NE 1.0 mph 1.0 mph 77% 0.00 in 102 W/m2
15:08 55.1 °F 48.4 °F 30.03 in NE 1.0 mph 2.0 mph 78% 0.00 in 148 W/m2
15:14 55.0 °F 48.9 °F 30.02 in NE 2.0 mph 3.0 mph 80% 0.00 in 156 W/m2
15:20 55.0 °F 48.9 °F 30.01 in NE 2.0 mph 2.0 mph 80% 0.00 in 257 W/m2
15:26 55.3 °F 49.6 °F 29.99 in East 1.0 mph 3.0 mph 81% 0.00 in 241 W/m2
15:32 55.3 °F 48.9 °F 29.98 in ENE 2.0 mph 3.0 mph 79% 0.00 in 160 W/m2
15:38 55.3 °F 48.6 °F 29.98 in NE 3.0 mph 3.0 mph 78% 0.00 in 158 W/m2
15:44 55.4 °F 48.7 °F 29.99 in East 2.0 mph 3.0 mph 78% 0.00 in 188 W/m2
15:50 55.6 °F 48.8 °F 29.97 in ENE 2.0 mph 3.0 mph 78% 0.00 in 292 W/m2
15:56 55.9 °F 48.8 °F 29.97 in ENE 3.0 mph 5.0 mph 77% 0.00 in 336 W/m2
16:02 56.2 °F 48.7 °F 29.97 in East 4.0 mph 6.0 mph 76% 0.00 in 283 W/m2
16:08 56.4 °F 48.6 °F 29.97 in ENE 3.0 mph 6.0 mph 75% 0.00 in 316 W/m2
16:14 56.8 °F 49.3 °F 29.97 in SE 3.0 mph 4.0 mph 76% 0.00 in 278 W/m2
16:20 57.0 °F 48.8 °F 29.96 in ENE 3.0 mph 5.0 mph 74% 0.00 in 283 W/m2
16:26 56.9 °F 48.7 °F 29.96 in East 3.0 mph 5.0 mph 74% 0.00 in 171 W/m2
16:32 57.0 °F 49.5 °F 29.96 in SSE 3.0 mph 3.0 mph 76% 0.00 in 149 W/m2
16:38 56.9 °F 49.1 °F 29.96 in SE 3.0 mph 3.0 mph 75% 0.00 in 118 W/m2
16:44 56.9 °F 49.1 °F 29.96 in SE 2.0 mph 4.0 mph 75% 0.00 in 162 W/m2
16:50 57.0 °F 49.5 °F 29.96 in SE 3.0 mph 3.0 mph 76% 0.00 in 149 W/m2
16:56 57.0 °F 49.5 °F 29.96 in SSE 2.0 mph 4.0 mph 76% 0.00 in 128 W/m2
17:02 57.0 °F 48.8 °F 29.96 in SSE 3.0 mph 3.0 mph 74% 0.00 in 93 W/m2
17:08 57.0 °F 49.2 °F 29.96 in ESE 3.0 mph 6.0 mph 75% 0.00 in 86 W/m2
17:14 57.1 °F 49.2 °F 29.96 in East 2.0 mph 3.0 mph 75% 0.00 in 113 W/m2
17:20 57.2 °F 49.3 °F 29.96 in East 1.0 mph 1.0 mph 75% 0.00 in 113 W/m2
17:26 57.3 °F 49.4 °F 29.96 in ENE 1.0 mph 2.0 mph 75% 0.00 in 81 W/m2
17:32 57.2 °F 49.3 °F 29.95 in ESE 1.0 mph 4.0 mph 75% 0.00 in 67 W/m2
17:38 57.1 °F 48.9 °F 29.95 in East 2.0 mph 4.0 mph 74% 0.00 in 53 W/m2
17:44 57.1 °F 48.9 °F 29.95 in East 2.0 mph 2.0 mph 74% 0.00 in 67 W/m2
17:50 57.1 °F 49.2 °F 29.95 in SE 1.0 mph 2.0 mph 75% 0.00 in 56 W/m2
17:56 57.1 °F 49.2 °F 29.94 in ESE 1.0 mph 3.0 mph 75% 0.00 in 44 W/m2
18:02 57.1 °F 49.2 °F 29.94 in ENE 1.0 mph 2.0 mph 75% 0.00 in 49 W/m2
18:08 57.0 °F 49.2 °F 29.94 in ENE 1.0 mph 3.0 mph 75% 0.00 in 33 W/m2
18:14 56.9 °F 48.7 °F 29.94 in ENE 1.0 mph 1.0 mph 74% 0.00 in 30 W/m2
18:20 56.9 °F 49.1 °F 29.94 in ENE 1.0 mph 1.0 mph 75% 0.00 in 25 W/m2
18:26 56.8 °F 49.0 °F 29.93 in ENE 1.0 mph 3.0 mph 75% 0.00 in 32 W/m2
18:32 56.6 °F 48.8 °F 29.93 in ENE 2.0 mph 2.0 mph 75% 0.00 in 46 W/m2
18:38 56.5 °F 49.0 °F 29.93 in ENE 2.0 mph 3.0 mph 76% 0.00 in 49 W/m2
18:44 56.4 °F 49.6 °F 29.93 in ENE 3.0 mph 4.0 mph 78% 0.00 in 47 W/m2
18:50 56.2 °F 49.4 °F 29.92 in ENE 2.0 mph 3.0 mph 78% 0.00 in 44 W/m2
18:56 56.2 °F 49.1 °F 29.92 in ENE 2.0 mph 4.0 mph 77% 0.00 in 26 W/m2
19:02 56.2 °F 49.1 °F 29.92 in ENE 2.0 mph 4.0 mph 77% 0.00 in 14 W/m2
19:08 56.2 °F 49.4 °F 29.92 in East 2.0 mph 4.0 mph 78% 0.00 in 12 W/m2
19:14 56.2 °F 49.4 °F 29.91 in ENE 2.0 mph 3.0 mph 78% 0.00 in 11 W/m2
19:20 56.1 °F 49.3 °F 29.91 in ENE 1.0 mph 2.0 mph 78% 0.00 in 7 W/m2
19:26 56.1 °F 49.3 °F 29.92 in ENE 1.0 mph 2.0 mph 78% 0.00 in 0 W/m2
19:32 56.1 °F 49.3 °F 29.92 in ENE 1.0 mph 5.0 mph 78% 0.00 in 0 W/m2
19:38 56.0 °F 49.6 °F 29.91 in East 1.0 mph 5.0 mph 79% 0.00 in 0 W/m2
19:44 55.8 °F 49.7 °F 29.91 in Calm   1.0 mph 80% 0.00 in 0 W/m2
19:50 55.5 °F 49.8 °F 29.91 in Calm   1.0 mph 81% 0.00 in 0 W/m2
19:56 55.1 °F 49.7 °F 29.91 in ENE 1.0 mph 3.0 mph 82% 0.00 in 0 W/m2
20:02 54.8 °F 49.7 °F 29.90 in ENE 1.0 mph 1.0 mph 83% 0.00 in 0 W/m2
20:08 54.6 °F 50.2 °F 29.89 in ENE 1.0 mph 2.0 mph 85% 0.00 in 0 W/m2
20:14 54.4 °F 50.0 °F 29.89 in SE 1.0 mph 2.0 mph 85% 0.00 in 0 W/m2
20:20 54.3 °F 50.2 °F 29.89 in ENE 2.0 mph 2.0 mph 86% 0.00 in 0 W/m2
20:26 54.3 °F 50.2 °F 29.89 in ENE 2.0 mph 2.0 mph 86% 0.00 in 0 W/m2
20:32 54.2 °F 50.1 °F 29.89 in ESE 1.0 mph 3.0 mph 86% 0.16 in 0 W/m2
20:38 54.1 °F 50.3 °F 29.88 in ENE 3.0 mph 6.0 mph 87% 0.13 in 0 W/m2
20:44 54.0 °F 50.2 °F 29.88 in ESE 3.0 mph 4.0 mph 87% 0.10 in 0 W/m2
20:50 54.0 °F 50.2 °F 29.89 in ENE 3.0 mph 5.0 mph 87% 0.07 in 0 W/m2
20:56 54.1 °F 50.3 °F 29.89 in ENE 4.0 mph 5.0 mph 87% 0.07 in 0 W/m2
21:02 54.0 °F 50.2 °F 29.89 in ESE 3.0 mph 4.0 mph 87% 0.04 in 0 W/m2
21:08 53.8 °F 50.0 °F 29.89 in ESE 3.0 mph 4.0 mph 87% 0.18 in 0 W/m2
21:14 53.6 °F 50.1 °F 29.88 in East 4.0 mph 5.0 mph 88% 0.08 in 0 W/m2
21:20 53.4 °F 49.9 °F 29.88 in ESE 4.0 mph 4.0 mph 88% 0.06 in 0 W/m2
21:26 53.3 °F 49.8 °F 29.88 in ENE 3.0 mph 4.0 mph 88% 0.06 in 0 W/m2
21:32 53.1 °F 49.9 °F 29.86 in ENE 4.0 mph 6.0 mph 89% 0.18 in 0 W/m2
21:38 52.9 °F 49.7 °F 29.85 in ENE 4.0 mph 11.0 mph 89% 0.19 in 0 W/m2
21:44 52.8 °F 49.6 °F 29.86 in SE 4.0 mph 4.0 mph 89% 0.08 in 0 W/m2
21:50 52.6 °F 49.4 °F 29.86 in ESE 4.0 mph 4.0 mph 89% 0.04 in 0 W/m2
21:56 52.6 °F 49.8 °F 29.86 in ESE 3.0 mph 4.0 mph 90% 0.00 in 0 W/m2
22:02 52.5 °F 49.7 °F 29.86 in ENE 3.0 mph 4.0 mph 90% 0.00 in 0 W/m2
22:08 52.5 °F 49.7 °F 29.87 in ENE 2.0 mph 5.0 mph 90% 0.32 in 0 W/m2
22:14 52.5 °F 49.7 °F 29.87 in SE 3.0 mph 6.0 mph 90% 0.37 in 0 W/m2
22:20 52.3 °F 49.5 °F 29.86 in East 3.0 mph 3.0 mph 90% 0.27 in 0 W/m2
22:26 52.1 °F 49.6 °F 29.85 in NE 3.0 mph 3.0 mph 91% 0.52 in 0 W/m2
22:32 52.0 °F 49.5 °F 29.86 in East 4.0 mph 4.0 mph 91% 0.49 in 0 W/m2
22:40 51.9 °F 49.4 °F 29.85 in East 3.0 mph 3.0 mph 91% 0.47 in 0 W/m2
22:46 51.7 °F 49.2 °F 29.86 in East 3.0 mph 3.0 mph 91% 0.48 in 0 W/m2
22:52 51.7 °F 49.2 °F 29.86 in ESE 2.0 mph 3.0 mph 91% 0.66 in 0 W/m2
22:58 51.7 °F 49.5 °F 29.86 in ENE 2.0 mph 3.0 mph 92% 0.43 in 0 W/m2
23:04 51.7 °F 49.5 °F 29.86 in ENE 2.0 mph 3.0 mph 92% 0.27 in 0 W/m2
23:10 51.7 °F 49.5 °F 29.86 in East 2.0 mph 2.0 mph 92% 0.25 in 0 W/m2
23:16 51.6 °F 49.4 °F 29.86 in ENE 2.0 mph 4.0 mph 92% 0.27 in 0 W/m2
23:22 51.6 °F 49.4 °F 29.85 in East 3.0 mph 6.0 mph 92% 0.26 in 0 W/m2
23:28 51.5 °F 49.3 °F 29.85 in ENE 3.0 mph 6.0 mph 92% 0.27 in 0 W/m2
23:34 51.5 °F 49.3 °F 29.85 in ENE 3.0 mph 5.0 mph 92% 0.46 in 0 W/m2
23:40 51.4 °F 49.2 °F 29.85 in ENE 3.0 mph 3.0 mph 92% 0.22 in 0 W/m2
23:46 51.4 °F 49.4 °F 29.85 in East 2.0 mph 6.0 mph 93% 0.12 in 0 W/m2
23:52 51.3 °F 49.3 °F 29.84 in ENE 3.0 mph 3.0 mph 93% 0.10 in 0 W/m2
23:58 51.2 °F 49.2 °F 29.83 in East 3.0 mph 4.0 mph 93% 0.17 in 0 W/m2
Country Meadow, Clay, NY, USA
Compliments of Weather Underground - 2 mb